Time;durP1;ratioP1;P1;durP2;ratioP2;P2;SDS_P1;SDS_P2;PMS_P1;PMS_P2;Temp;Humidity;BMP_temperature;BMP_pressure;BME280_temperature;BME280_humidity;BME280_pressure;Samples;Min_cycle;Max_cycle;Signal;HPM_P1;HPM_P2
2022/08/18 00:01:42;;;;;;;;;;;;;;;17.72;57.22;100174.13;5074286;28;1902;-55
2022/08/18 00:04:08;;;;;;;;;;;;;;;17.29;57.40;100161.19;5076936;28;977;-55
2022/08/18 00:06:33;;;;;;;;;;;;;;;17.20;56.99;100162.97;5051956;28;1264;-51
2022/08/18 00:09:00;;;;;;;;;;;;;;;17.14;56.31;100170.44;5061015;28;1001;-53
2022/08/18 00:11:26;;;;;;;;;;;;;;;17.10;56.07;100172.94;5065049;28;961;-52
2022/08/18 00:13:51;;;;;;;;;;;;;;;17.07;56.03;100172.72;5068914;28;1071;-54
2022/08/18 00:16:17;;;;;;;;;;;;;;;17.04;55.90;100160.41;5073413;28;1076;-52
2022/08/18 00:18:42;;;;;;;;;;;;;;;16.99;56.02;100163.19;5070348;28;1221;-54
2022/08/18 00:21:07;;;;;;;;;;;;;;;16.96;55.82;100171.19;5074210;28;1905;-53
2022/08/18 00:23:33;;;;;;;;;;;;;;;17.01;55.50;100177.47;5068714;28;1202;-53
2022/08/18 00:25:59;;;;;;;;;;;;;;;16.94;55.73;100176.97;5075926;28;988;-51
2022/08/18 00:28:24;;;;;;;;;;;;;;;16.97;55.39;100181.06;5075578;28;1182;-51
2022/08/18 00:30:50;;;;;;;;;;;;;;;16.91;55.41;100185.78;5077230;28;1068;-48
2022/08/18 00:33:15;;;;;;;;;;;;;;;16.87;55.43;100182.78;5063843;28;954;-51
2022/08/18 00:35:40;;;;;;;;;;;;;;;16.86;55.37;100175.66;5063220;28;1457;-53
2022/08/18 00:38:06;;;;;;;;;;;;;;;16.85;55.34;100175.94;5072332;28;981;-52
2022/08/18 00:40:42;;;;;;;;;;;;;;;16.81;55.62;100181.19;5069652;28;1084;-51
2022/08/18 00:43:11;;;;;;;;;;;;;;;16.79;55.61;100186.16;5063996;28;1976;-48
2022/08/18 00:45:38;;;;;;;;;;;;;;;16.84;55.36;100182.53;5071028;28;1013;-51
2022/08/18 00:48:04;;;;;;;;;;;;;;;16.74;55.68;100187.00;5060368;28;1060;-53
2022/08/18 00:50:40;;;;;;;;;;;;;;;16.74;55.42;100180.72;5071504;28;981;-55
2022/08/18 00:53:07;;;;;;;;;;;;;;;16.74;55.54;100186.19;5068479;28;1250;-52
2022/08/18 00:55:33;;;;;;;;;;;;;;;16.73;55.32;100190.88;5073184;28;1183;-50
2022/08/18 00:58:03;;;;;;;;;;;;;;;16.75;55.55;100185.91;5048456;28;1242;-53
2022/08/18 01:00:28;;;;;;;;;;;;;;;16.70;55.27;100191.44;5052007;28;895;-52
2022/08/18 01:02:54;;;;;;;;;;;;;;;16.70;55.24;100182.41;5073618;28;1901;-53
2022/08/18 01:05:21;;;;;;;;;;;;;;;16.70;55.23;100177.72;5057584;28;1095;-53
2022/08/18 01:07:46;;;;;;;;;;;;;;;16.69;55.61;100187.09;5058113;28;1072;-53
2022/08/18 01:10:16;;;;;;;;;;;;;;;16.67;55.46;100180.25;5057864;28;1021;-54
2022/08/18 01:12:47;;;;;;;;;;;;;;;16.68;55.29;100182.69;5068948;28;890;-53
2022/08/18 01:15:13;;;;;;;;;;;;;;;16.68;55.16;100179.94;5067172;28;997;-53
2022/08/18 01:23:13;;;;;;;;;;;;;;;17.49;57.17;100182.13;5053408;28;1906;-49
2022/08/18 01:28:22;;;;;;;;;;;;;;;17.04;56.50;100182.38;5073223;28;1044;-53
2022/08/18 01:30:49;;;;;;;;;;;;;;;16.97;56.59;100192.06;5074623;28;1009;-53
2022/08/18 01:33:15;;;;;;;;;;;;;;;16.96;56.23;100185.75;5075624;28;1004;-53
2022/08/18 01:35:40;;;;;;;;;;;;;;;16.93;55.84;100181.66;5061024;28;854;-53
2022/08/18 01:38:06;;;;;;;;;;;;;;;16.95;55.58;100172.31;5050706;28;1029;-53
2022/08/18 01:40:31;;;;;;;;;;;;;;;16.85;55.73;100173.19;5067453;28;985;-55
2022/08/18 01:42:57;;;;;;;;;;;;;;;16.85;55.73;100181.44;5068966;28;1901;-53
2022/08/18 01:45:22;;;;;;;;;;;;;;;16.85;55.39;100181.44;5075587;28;1364;-53
2022/08/18 01:47:49;;;;;;;;;;;;;;;16.77;55.71;100180.13;5065570;28;1025;-51
2022/08/18 01:50:15;;;;;;;;;;;;;;;16.77;55.52;100175.47;5067118;28;1072;-53
2022/08/18 01:52:40;;;;;;;;;;;;;;;16.73;55.57;100176.31;5061355;28;962;-52
2022/08/18 01:55:06;;;;;;;;;;;;;;;16.75;55.46;100177.69;5067454;28;1126;-53
2022/08/18 01:57:32;;;;;;;;;;;;;;;16.74;55.56;100173.28;5059316;28;1167;-55
2022/08/18 01:59:59;;;;;;;;;;;;;;;16.74;55.54;100176.03;5062267;28;966;-53
2022/08/18 02:02:27;;;;;;;;;;;;;;;16.76;55.68;100170.28;5073077;28;1905;-56
2022/08/18 02:04:53;;;;;;;;;;;;;;;16.74;55.50;100178.78;5071131;28;1167;-51
2022/08/18 02:07:18;;;;;;;;;;;;;;;16.73;55.30;100171.66;5064399;28;974;-53
2022/08/18 02:09:44;;;;;;;;;;;;;;;16.72;55.52;100174.72;5073915;28;1163;-51
2022/08/18 02:12:10;;;;;;;;;;;;;;;16.71;55.42;100173.88;5060311;28;874;-50
2022/08/18 02:14:36;;;;;;;;;;;;;;;16.67;55.61;100169.25;5069477;28;1044;-47
2022/08/18 02:17:02;;;;;;;;;;;;;;;16.69;55.64;100167.88;5067282;28;1170;-49
2022/08/18 02:19:27;;;;;;;;;;;;;;;17.19;56.46;100175.06;5070817;28;1150;-52
2022/08/18 02:21:53;;;;;;;;;;;;;;;17.69;57.17;100171.97;5067958;28;1897;-53
2022/08/18 02:24:18;;;;;;;;;;;;;;;17.24;57.48;100169.53;5068976;28;943;-53
2022/08/18 02:26:43;;;;;;;;;;;;;;;17.17;56.82;100178.09;5061814;28;1230;-54
2022/08/18 02:29:09;;;;;;;;;;;;;;;17.10;56.83;100183.94;5066870;28;1005;-52
2022/08/18 02:31:35;;;;;;;;;;;;;;;17.03;56.52;100177.19;5062679;28;1140;-54
2022/08/18 02:34:00;;;;;;;;;;;;;;;16.99;56.34;100174.19;5069837;28;1160;-54
2022/08/18 02:36:26;;;;;;;;;;;;;;;16.98;56.08;100172.53;5062001;28;866;-56
2022/08/18 02:38:51;;;;;;;;;;;;;;;16.93;55.69;100176.16;5073448;28;1048;-56
2022/08/18 02:41:17;;;;;;;;;;;;;;;16.88;55.93;100183.59;5067413;28;1878;-57
2022/08/18 02:43:42;;;;;;;;;;;;;;;16.89;55.74;100180.59;5070193;28;1000;-58
2022/08/18 02:46:08;;;;;;;;;;;;;;;16.89;55.48;100180.59;5076194;28;1223;-57
2022/08/18 02:48:33;;;;;;;;;;;;;;;16.90;55.61;100179.50;5068781;28;1040;-57
2022/08/18 02:51:07;;;;;;;;;;;;;;;16.85;55.60;100184.19;5073609;28;985;-57
2022/08/18 02:53:33;;;;;;;;;;;;;;;16.81;55.76;100185.88;5057057;28;1135;-58
2022/08/18 02:56:28;;;;;;;;;;;;;;;17.17;56.38;100196.53;5065324;28;1327;-57
2022/08/18 02:58:54;;;;;;;;;;;;;;;17.63;57.47;100193.22;5069864;28;1021;-59
2022/08/18 03:01:20;;;;;;;;;;;;;;;17.31;57.44;100186.47;5049972;28;1905;-57
2022/08/18 03:03:46;;;;;;;;;;;;;;;17.21;56.90;100186.59;5066454;28;1131;-58
2022/08/18 03:06:11;;;;;;;;;;;;;;;17.16;56.38;100197.63;5077446;28;1044;-56
2022/08/18 03:08:37;;;;;;;;;;;;;;;17.07;56.57;100203.75;5077994;28;1350;-58
2022/08/18 03:11:02;;;;;;;;;;;;;;;17.05;56.23;100191.41;5066753;28;1048;-58
2022/08/18 03:13:29;;;;;;;;;;;;;;;17.00;56.18;100197.78;5065098;28;958;-59
2022/08/18 03:15:54;;;;;;;;;;;;;;;17.00;55.68;100200.53;5071875;28;1087;-58
2022/08/18 03:18:22;;;;;;;;;;;;;;;16.99;55.51;100200.84;5071884;28;1100;-59
2022/08/18 03:20:48;;;;;;;;;;;;;;;16.91;55.96;100205.00;5063883;28;1017;-59
2022/08/18 03:23:13;;;;;;;;;;;;;;;16.88;55.65;100208.31;5074603;28;1977;-57
2022/08/18 03:25:45;;;;;;;;;;;;;;;16.87;55.82;100207.50;5063505;28;875;-60
2022/08/18 03:28:11;;;;;;;;;;;;;;;16.85;55.82;100215.19;5076432;28;1178;-57
2022/08/18 03:30:36;;;;;;;;;;;;;;;16.82;55.64;100218.53;5069551;28;1179;-57
2022/08/18 03:33:02;;;;;;;;;;;;;;;16.80;55.59;100219.94;5078094;28;981;-58
2022/08/18 03:35:27;;;;;;;;;;;;;;;16.80;55.48;100226.22;5075054;28;1072;-56
2022/08/18 03:37:54;;;;;;;;;;;;;;;16.82;55.50;100231.44;5064478;28;962;-58
2022/08/18 03:40:20;;;;;;;;;;;;;;;16.81;55.60;100233.38;5063209;28;1060;-58
2022/08/18 03:42:45;;;;;;;;;;;;;;;16.79;55.58;100235.59;5073679;28;1906;-59
2022/08/18 03:45:10;;;;;;;;;;;;;;;16.73;55.70;100237.56;5068832;28;1300;-59
2022/08/18 03:47:36;;;;;;;;;;;;;;;16.71;55.55;100245.25;5057888;28;1029;-58
2022/08/18 03:50:02;;;;;;;;;;;;;;;16.73;55.65;100242.22;5063206;28;1254;-58
2022/08/18 03:52:27;;;;;;;;;;;;;;;16.72;55.58;100241.41;5065999;28;1068;-56
2022/08/18 03:54:53;;;;;;;;;;;;;;;16.67;55.47;100232.41;5068447;28;1147;-58
2022/08/18 03:57:19;;;;;;;;;;;;;;;16.68;55.50;100245.84;5071123;28;1017;-57
2022/08/18 03:59:45;;;;;;;;;;;;;;;16.67;55.49;100238.69;5075012;28;1219;-56
2022/08/18 04:02:10;;;;;;;;;;;;;;;16.74;55.60;100243.84;5064386;28;1913;-54
2022/08/18 04:04:35;;;;;;;;;;;;;;;17.84;56.85;100248.78;5074450;28;1076;-56
2022/08/18 04:07:03;;;;;;;;;;;;;;;17.35;57.54;100255.38;5075892;28;1158;-56
2022/08/18 04:09:29;;;;;;;;;;;;;;;17.16;57.26;100255.31;5058849;28;1005;-55
2022/08/18 04:11:55;;;;;;;;;;;;;;;17.06;56.81;100267.22;5073560;28;1143;-55
2022/08/18 04:14:23;;;;;;;;;;;;;;;17.02;56.50;100260.69;5046654;28;962;-57
2022/08/18 04:16:48;;;;;;;;;;;;;;;16.99;56.34;100272.25;5068297;28;946;-57
2022/08/18 04:19:15;;;;;;;;;;;;;;;16.93;56.12;100275.03;5071289;28;1012;-55
2022/08/18 04:21:41;;;;;;;;;;;;;;;16.92;55.82;100267.09;5072719;28;1973;-55
2022/08/18 04:24:06;;;;;;;;;;;;;;;16.85;55.85;100266.56;5076038;28;1111;-55
2022/08/18 04:26:36;;;;;;;;;;;;;;;16.84;55.99;100265.72;5060374;28;1103;-55
2022/08/18 04:29:01;;;;;;;;;;;;;;;16.87;55.74;100267.94;5061963;28;1028;-55
2022/08/18 04:31:28;;;;;;;;;;;;;;;16.84;55.66;100273.16;5069041;28;989;-55
2022/08/18 04:33:55;;;;;;;;;;;;;;;16.77;55.90;100274.31;5051407;28;1020;-55
2022/08/18 04:36:20;;;;;;;;;;;;;;;16.76;55.48;100269.94;5071586;28;1068;-56
2022/08/18 04:38:46;;;;;;;;;;;;;;;16.74;55.79;100277.63;5069890;28;1016;-55
2022/08/18 04:41:12;;;;;;;;;;;;;;;16.73;55.72;100261.44;5073756;28;1972;-56
2022/08/18 04:43:37;;;;;;;;;;;;;;;16.75;55.67;100272.97;5073976;28;1203;-54
2022/08/18 04:46:04;;;;;;;;;;;;;;;16.72;55.62;100274.34;5073694;28;1163;-55
2022/08/18 04:48:32;;;;;;;;;;;;;;;16.68;55.60;100270.53;5059668;28;826;-53
2022/08/18 04:51:01;;;;;;;;;;;;;;;16.69;55.57;100274.09;5065620;28;1033;-55
2022/08/18 04:53:45;;;;;;;;;;;;;;;16.67;55.76;100279.88;5071354;28;1060;-55
2022/08/18 04:56:20;;;;;;;;;;;;;;;16.65;55.64;100273.88;5069634;28;1113;-56
2022/08/18 04:58:49;;;;;;;;;;;;;;;16.67;55.75;100279.06;5075133;28;1005;-57
2022/08/18 05:01:16;;;;;;;;;;;;;;;17.67;56.84;100273.16;5067829;28;1980;-56
2022/08/18 05:03:41;;;;;;;;;;;;;;;17.36;57.41;100273.53;5072118;28;1048;-57
2022/08/18 05:06:08;;;;;;;;;;;;;;;17.15;57.27;100281.16;5074393;28;1188;-57
2022/08/18 05:08:34;;;;;;;;;;;;;;;17.06;57.19;100290.00;5073241;28;1159;-56
2022/08/18 05:10:59;;;;;;;;;;;;;;;17.02;56.77;100282.66;5075663;28;1092;-56
2022/08/18 05:13:25;;;;;;;;;;;;;;;16.96;56.71;100281.88;5072213;28;1108;-56
2022/08/18 05:15:55;;;;;;;;;;;;;;;16.98;56.27;100282.41;5064379;28;949;-57
2022/08/18 05:18:23;;;;;;;;;;;;;;;16.89;56.45;100289.63;5064580;28;1020;-57
2022/08/18 05:20:50;;;;;;;;;;;;;;;16.92;56.35;100283.56;5068485;28;1072;-56
2022/08/18 05:23:16;;;;;;;;;;;;;;;16.86;56.19;100293.75;5071010;28;1909;-56
2022/08/18 05:25:41;;;;;;;;;;;;;;;16.90;56.27;100294.84;5066259;28;873;-56
2022/08/18 05:28:08;;;;;;;;;;;;;;;16.84;56.23;100300.63;5073289;28;1056;-56
2022/08/18 05:30:33;;;;;;;;;;;;;;;16.83;56.20;100297.06;5070473;28;1123;-55
2022/08/18 05:33:00;;;;;;;;;;;;;;;16.84;56.33;100292.38;5074284;28;1055;-57
2022/08/18 05:35:27;;;;;;;;;;;;;;;16.87;56.01;100300.03;5073155;28;1060;-58
2022/08/18 05:37:53;;;;;;;;;;;;;;;16.80;56.29;100294.88;5042768;28;865;-57
2022/08/18 05:40:18;;;;;;;;;;;;;;;16.86;56.02;100296.47;5070177;28;1215;-59
2022/08/18 05:42:44;;;;;;;;;;;;;;;16.87;56.07;100298.13;5039547;28;1918;-59
2022/08/18 05:45:10;;;;;;;;;;;;;;;16.83;56.25;100298.97;5056364;28;1009;-58
2022/08/18 05:47:35;;;;;;;;;;;;;;;18.41;53.49;100290.13;5061550;28;1123;-58
2022/08/18 05:50:05;;;;;;;;;;;;;;;17.21;55.03;100293.75;5061997;28;917;-59
2022/08/18 05:52:32;;;;;;;;;;;;;;;16.87;54.25;100300.88;5069941;28;1168;-58
2022/08/18 05:57:50;;;;;;;;;;;;;;;14.77;62.07;100296.97;5064607;28;1044;-58
2022/08/18 06:00:16;;;;;;;;;;;;;;;16.35;55.07;100296.84;5050495;28;1056;-57
2022/08/18 06:02:46;;;;;;;;;;;;;;;17.74;56.04;100301.97;5069118;28;1910;-59
2022/08/18 06:05:13;;;;;;;;;;;;;;;17.07;55.27;100301.84;5038888;28;967;-58
2022/08/18 06:07:43;;;;;;;;;;;;;;;16.98;53.93;100304.38;5038836;28;1108;-59
2022/08/18 06:10:08;;;;;;;;;;;;;;;16.94;52.72;100300.56;5069928;28;1155;-58
2022/08/18 06:12:35;;;;;;;;;;;;;;;16.96;52.83;100312.09;5074141;28;1024;-60
2022/08/18 06:15:21;;;;;;;;;;;;;;;17.58;54.53;100309.56;5062198;28;950;-57
2022/08/18 06:17:50;;;;;;;;;;;;;;;17.20;53.63;100311.34;5074764;28;1163;-57
2022/08/18 06:20:34;;;;;;;;;;;;;;;17.04;52.71;100303.22;5065123;28;1024;-57
2022/08/18 06:23:07;;;;;;;;;;;;;;;16.99;52.20;100303.28;5062691;28;1909;-57
2022/08/18 06:25:34;;;;;;;;;;;;;;;17.01;51.51;100303.81;5046918;28;1522;-58
2022/08/18 06:28:12;;;;;;;;;;;;;;;17.02;51.22;100299.13;5053038;28;1005;-58
2022/08/18 06:30:42;;;;;;;;;;;;;;;16.96;50.89;100306.59;5051177;28;1191;-59
2022/08/18 06:33:28;;;;;;;;;;;;;;;16.93;50.69;100307.19;5055021;28;1056;-59
2022/08/18 06:36:03;;;;;;;;;;;;;;;16.87;50.58;100308.28;5060874;28;970;-58
2022/08/18 06:41:52;;;;;;;;;;;;;;;15.10;60.18;100300.25;5069414;28;1906;-60
2022/08/18 06:44:21;;;;;;;;;;;;;;;16.21;55.29;100302.13;5051988;28;1029;-56
2022/08/18 06:46:49;;;;;;;;;;;;;;;16.74;52.76;100310.56;5074090;28;1013;-57
2022/08/18 06:49:19;;;;;;;;;;;;;;;16.84;51.59;100303.38;5067903;28;1120;-57
2022/08/18 06:51:44;;;;;;;;;;;;;;;16.83;51.37;100308.03;5044577;28;1010;-59
2022/08/18 06:54:18;;;;;;;;;;;;;;;16.87;50.66;100308.28;5062674;28;1039;-59
2022/08/18 06:56:45;;;;;;;;;;;;;;;17.42;51.95;100303.41;5056323;28;1024;-60
2022/08/18 06:59:14;;;;;;;;;;;;;;;17.36;52.89;100307.34;5070052;28;996;-58
2022/08/18 07:01:39;;;;;;;;;;;;;;;17.30;51.94;100308.47;5069694;28;1961;-58
2022/08/18 07:04:04;;;;;;;;;;;;;;;17.16;51.14;100310.28;5066635;28;1029;-58
2022/08/18 07:06:30;;;;;;;;;;;;;;;17.13;50.55;100306.16;5069304;28;1021;-58
2022/08/18 07:09:15;;;;;;;;;;;;;;;17.15;50.38;100308.63;5067470;28;1330;-58
2022/08/18 07:11:42;;;;;;;;;;;;;;;17.15;50.03;100309.44;5057455;28;1195;-60
2022/08/18 07:14:11;;;;;;;;;;;;;;;17.15;49.83;100308.63;5054223;28;1324;-61
2022/08/18 07:16:36;;;;;;;;;;;;;;;17.14;49.76;100306.97;5069916;28;1358;-62
2022/08/18 07:19:06;;;;;;;;;;;;;;;17.10;49.93;100317.75;5068787;28;973;-59
2022/08/18 07:21:32;;;;;;;;;;;;;;;17.22;50.19;100317.34;5068380;28;1897;-60
2022/08/18 07:24:02;;;;;;;;;;;;;;;17.19;50.14;100318.75;5068116;28;969;-61
2022/08/18 07:26:27;;;;;;;;;;;;;;;17.17;49.94;100322.91;5049468;28;1400;-61
2022/08/18 07:28:53;;;;;;;;;;;;;;;17.26;49.72;100313.75;5042110;28;1235;-60
2022/08/18 07:31:37;;;;;;;;;;;;;;;17.21;49.93;100312.97;5075102;28;997;-60
2022/08/18 07:34:05;;;;;;;;;;;;;;;17.29;49.56;100315.06;5060339;28;1262;-62
2022/08/18 07:36:32;;;;;;;;;;;;;;;17.30;49.59;100310.41;5043972;28;1327;-63
2022/08/18 07:38:59;;;;;;;;;;;;;;;17.28;49.41;100307.97;5051365;28;907;-62
2022/08/18 07:41:41;;;;;;;;;;;;;;;17.28;49.19;100319.75;5051198;28;1979;-63
2022/08/18 07:44:15;;;;;;;;;;;;;;;17.29;49.18;100320.56;5062659;28;1049;-61
2022/08/18 07:46:51;;;;;;;;;;;;;;;17.37;49.18;100314.44;5060813;28;1049;-63
2022/08/18 07:49:20;;;;;;;;;;;;;;;17.30;49.47;100313.97;5078621;28;1084;-61
2022/08/18 07:51:46;;;;;;;;;;;;;;;17.34;49.09;100312.28;5053355;28;966;-59
2022/08/18 07:54:24;;;;;;;;;;;;;;;17.35;49.04;100313.09;5060086;28;1145;-61
2022/08/18 07:56:53;;;;;;;;;;;;;;;17.37;48.98;100306.19;5065822;28;1017;-60
2022/08/18 07:59:18;;;;;;;;;;;;;;;17.35;48.95;100308.44;5077930;28;949;-62
2022/08/18 08:01:43;;;;;;;;;;;;;;;17.33;48.87;100307.09;5077261;28;1970;-61
2022/08/18 08:04:14;;;;;;;;;;;;;;;17.33;48.85;100310.63;5069847;28;962;-62
2022/08/18 08:06:44;;;;;;;;;;;;;;;17.25;48.93;100303.03;5078207;28;1143;-60
2022/08/18 08:09:22;;;;;;;;;;;;;;;17.37;49.18;100305.41;5059563;28;1128;-59
2022/08/18 08:11:56;;;;;;;;;;;;;;;17.37;49.11;100300.72;5059254;28;1143;-59
2022/08/18 08:14:27;;;;;;;;;;;;;;;17.37;49.07;100300.72;5073003;28;1083;-64
2022/08/18 08:16:58;;;;;;;;;;;;;;;17.28;49.34;100296.97;5057828;28;1156;-61
2022/08/18 08:19:42;;;;;;;;;;;;;;;17.36;48.99;100290.84;5059375;28;1045;-61
2022/08/18 08:22:12;;;;;;;;;;;;;;;17.38;49.10;100291.34;5064180;28;1975;-67
2022/08/18 08:24:46;;;;;;;;;;;;;;;17.40;48.95;100304.81;5059513;28;1029;-61
2022/08/18 08:27:31;;;;;;;;;;;;;;;17.33;48.95;100298.84;5075727;28;1128;-60
2022/08/18 08:30:09;;;;;;;;;;;;;;;17.39;48.96;100293.00;5077675;28;1017;-61
2022/08/18 08:32:36;;;;;;;;;;;;;;;17.38;48.79;100290.56;5054734;28;1040;-60
2022/08/18 08:35:01;;;;;;;;;;;;;;;17.36;48.55;100282.59;5049866;28;986;-63
2022/08/18 08:37:29;;;;;;;;;;;;;;;17.34;48.70;100295.78;5070187;28;969;-62
2022/08/18 08:40:13;;;;;;;;;;;;;;;17.38;48.93;100293.31;5053058;28;962;-59
2022/08/18 08:42:40;;;;;;;;;;;;;;;17.41;49.00;100290.78;5059773;28;1973;-59
2022/08/18 08:45:10;;;;;;;;;;;;;;;17.42;48.81;100292.41;5056450;28;1021;-59
2022/08/18 08:47:40;;;;;;;;;;;;;;;17.44;48.74;100292.94;5055039;28;1084;-59
2022/08/18 08:50:06;;;;;;;;;;;;;;;17.41;48.91;100287.22;5056412;28;1057;-60
2022/08/18 08:52:58;;;;;;;;;;;;;;;17.50;48.54;100292.88;5058935;28;1369;-60
2022/08/18 08:55:28;;;;;;;;;;;;;;;17.41;48.97;100290.78;5060930;28;1120;-60
2022/08/18 08:57:56;;;;;;;;;;;;;;;17.43;48.65;100285.81;5061790;28;1239;-60
2022/08/18 09:00:21;;;;;;;;;;;;;;;17.39;49.03;100287.50;5054733;28;969;-61
2022/08/18 09:02:46;;;;;;;;;;;;;;;17.40;48.71;100299.31;5069602;28;1902;-60
2022/08/18 09:05:34;;;;;;;;;;;;;;;17.43;48.81;100298.72;5066793;28;989;-61
2022/08/18 09:08:06;;;;;;;;;;;;;;;17.42;48.47;100286.91;5072314;28;1053;-61
2022/08/18 09:10:39;;;;;;;;;;;;;;;17.44;48.83;100286.63;5063579;28;1076;-62
2022/08/18 09:13:23;;;;;;;;;;;;;;;17.41;48.82;100290.78;5054524;28;990;-62
2022/08/18 09:16:18;;;;;;;;;;;;;;;17.49;48.88;100288.50;5041757;28;859;-62
2022/08/18 09:18:50;;;;;;;;;;;;;;;17.50;48.66;100287.38;5041506;28;1366;-62
2022/08/18 09:21:28;;;;;;;;;;;;;;;17.45;48.93;100285.53;5075167;28;1905;-61
2022/08/18 09:24:03;;;;;;;;;;;;;;;17.57;48.73;100287.84;5070833;28;1096;-61
2022/08/18 09:27:01;;;;;;;;;;;;;;;17.58;48.89;100284.00;5070031;28;950;-61
2022/08/18 09:29:45;;;;;;;;;;;;;;;16.24;55.24;100290.59;5021572;28;1223;-60
2022/08/18 09:32:19;;;;;;;;;;;;;;;16.48;53.76;100289.88;5076551;28;1001;-59
2022/08/18 09:35:00;;;;;;;;;;;;;;;17.00;51.27;100274.69;5076132;28;1119;-58
2022/08/18 09:37:41;;;;;;;;;;;;;;;17.30;49.91;100278.25;5070335;28;1127;-63
2022/08/18 09:42:53;;;;;;;;;;;;;;;17.37;49.67;100284.22;5076188;28;1906;-62
2022/08/18 09:45:31;;;;;;;;;;;;;;;17.36;49.67;100288.09;5066799;28;1053;-59
2022/08/18 09:48:19;;;;;;;;;;;;;;;17.38;49.58;100291.34;5076552;28;1128;-59
2022/08/18 09:50:55;;;;;;;;;;;;;;;17.39;49.18;100279.25;5062241;28;1667;-61
2022/08/18 09:53:32;;;;;;;;;;;;;;;17.43;49.14;100276.75;5065001;28;946;-60
2022/08/18 09:55:57;;;;;;;;;;;;;;;17.43;49.22;100277.56;5071869;28;1117;-61
2022/08/18 09:58:23;;;;;;;;;;;;;;;17.43;48.93;100282.22;5064827;28;1076;-58
2022/08/18 10:01:24;;;;;;;;;;;;;;;17.50;48.90;100284.66;5065304;28;1119;-58
2022/08/18 10:04:12;;;;;;;;;;;;;;;17.50;49.08;100276.41;4985295;28;1459;-61
2022/08/18 10:06:37;;;;;;;;;;;;;;;17.53;48.87;100278.56;5064417;28;1533;-60
2022/08/18 10:09:06;;;;;;;;;;;;;;;17.48;48.93;100282.19;5065716;28;1040;-58
2022/08/18 10:11:43;;;;;;;;;;;;;;;17.51;49.03;100280.78;5048174;28;994;-59
2022/08/18 10:14:22;;;;;;;;;;;;;;;17.58;48.72;100279.31;5061997;28;954;-59
2022/08/18 10:16:51;;;;;;;;;;;;;;;17.57;48.88;100265.88;5050193;28;951;-59
2022/08/18 10:19:22;;;;;;;;;;;;;;;17.58;48.89;100270.25;5056110;28;1410;-60
2022/08/18 10:21:57;;;;;;;;;;;;;;;17.59;48.76;100264.47;5062196;28;1905;-61
2022/08/18 10:24:43;;;;;;;;;;;;;;;17.64;48.84;100266.31;5074940;28;1044;-55
2022/08/18 10:27:11;;;;;;;;;;;;;;;17.59;48.82;100271.91;5050357;28;1283;-55
2022/08/18 10:29:40;;;;;;;;;;;;;;;14.71;56.58;100275.06;5071383;28;1021;-58
2022/08/18 10:32:09;;;;;;;;;;;;;;;16.71;51.02;100283.69;5069716;28;957;-60
2022/08/18 10:34:44;;;;;;;;;;;;;;;17.10;49.63;100262.81;5075238;28;1121;-58
2022/08/18 10:37:12;;;;;;;;;;;;;;;17.18;49.13;100264.09;5074538;28;1040;-60
2022/08/18 10:39:38;;;;;;;;;;;;;;;17.28;49.19;100269.50;5050617;28;1072;-63
2022/08/18 10:42:13;;;;;;;;;;;;;;;17.36;49.06;100274.34;5068946;28;2027;-60
2022/08/18 10:44:43;;;;;;;;;;;;;;;17.35;49.05;100274.63;5065808;28;1180;-60
2022/08/18 10:47:09;;;;;;;;;;;;;;;17.43;48.95;100276.75;5066976;28;938;-59
2022/08/18 10:49:36;;;;;;;;;;;;;;;17.47;48.88;100277.00;5054968;28;1120;-59
2022/08/18 10:52:08;;;;;;;;;;;;;;;17.57;48.52;100272.19;5073973;28;830;-59
2022/08/18 10:54:38;;;;;;;;;;;;;;;17.50;48.84;100268.16;5070268;28;1427;-62
2022/08/18 10:57:07;;;;;;;;;;;;;;;17.57;48.80;100274.13;5050254;28;1005;-61
2022/08/18 10:59:36;;;;;;;;;;;;;;;17.56;48.85;100267.00;5059723;28;1096;-59
2022/08/18 11:02:20;;;;;;;;;;;;;;;17.57;48.87;100268.63;5060817;28;1980;-59
2022/08/18 11:04:46;;;;;;;;;;;;;;;17.56;48.64;100278.00;5071713;28;1140;-57
2022/08/18 11:07:24;;;;;;;;;;;;;;;17.59;48.64;100269.16;5060779;28;969;-57
2022/08/18 11:09:54;;;;;;;;;;;;;;;17.59;48.65;100266.41;5057221;28;946;-59
2022/08/18 11:12:49;;;;;;;;;;;;;;;17.58;48.82;100268.31;5078561;28;942;-60
2022/08/18 11:15:17;;;;;;;;;;;;;;;17.55;48.89;100263.41;5059744;28;1159;-60
2022/08/18 11:17:52;;;;;;;;;;;;;;;17.55;48.78;100271.66;5049454;28;1092;-63
2022/08/18 11:20:18;;;;;;;;;;;;;;;17.69;48.47;100266.28;5063585;28;1187;-60
2022/08/18 11:22:54;;;;;;;;;;;;;;;17.57;48.83;100279.59;5048397;28;1983;-58
2022/08/18 11:25:40;;;;;;;;;;;;;;;17.60;48.66;100260.59;5077930;28;1004;-55
2022/08/18 11:28:19;;;;;;;;;;;;;;;15.24;54.82;100265.72;5072701;28;942;-57
2022/08/18 11:30:45;;;;;;;;;;;;;;;16.53;50.97;100271.47;5076756;28;1052;-55
2022/08/18 11:33:14;;;;;;;;;;;;;;;17.06;49.32;100279.03;5060002;28;1214;-58
2022/08/18 11:35:44;;;;;;;;;;;;;;;17.18;49.04;100266.81;5043508;28;1061;-59
2022/08/18 11:38:11;;;;;;;;;;;;;;;17.28;48.64;100258.50;5067919;28;958;-59
2022/08/18 11:40:38;;;;;;;;;;;;;;;17.29;48.80;100265.63;5053490;28;1084;-56
2022/08/18 11:43:22;;;;;;;;;;;;;;;17.37;48.54;100261.44;5059950;28;1976;-58
2022/08/18 11:45:47;;;;;;;;;;;;;;;17.37;48.42;100267.72;5058694;28;1045;-57
2022/08/18 11:48:13;;;;;;;;;;;;;;;17.31;48.67;100259.84;5077987;28;1036;-57
2022/08/18 11:50:49;;;;;;;;;;;;;;;17.37;48.51;100251.25;5077669;28;1020;-57
2022/08/18 11:53:20;;;;;;;;;;;;;;;17.30;48.68;100260.97;5067849;28;1064;-56
2022/08/18 11:55:46;;;;;;;;;;;;;;;17.41;48.42;100267.97;5077307;28;1217;-57
2022/08/18 11:58:14;;;;;;;;;;;;;;;17.41;48.16;100246.78;5054904;28;1276;-58
2022/08/18 12:00:53;;;;;;;;;;;;;;;17.34;48.36;100235.34;5074160;28;1281;-58
2022/08/18 12:03:18;;;;;;;;;;;;;;;17.43;48.18;100244.59;5077639;28;1965;-56
2022/08/18 12:05:46;;;;;;;;;;;;;;;17.40;48.22;100267.16;5061310;28;978;-57
2022/08/18 12:08:40;;;;;;;;;;;;;;;17.30;48.60;100267.25;5074158;28;997;-57
2022/08/18 12:11:15;;;;;;;;;;;;;;;17.34;48.18;100262.81;5050877;28;1735;-58
2022/08/18 12:13:44;;;;;;;;;;;;;;;17.43;48.47;100244.59;5060059;28;1227;-60
2022/08/18 12:16:30;;;;;;;;;;;;;;;17.40;48.35;100250.69;5055832;28;1158;-60
2022/08/18 12:18:56;;;;;;;;;;;;;;;17.39;48.43;100253.69;5076669;28;1427;-56
2022/08/18 12:21:21;;;;;;;;;;;;;;;17.40;48.32;100256.19;5076962;28;1901;-57
2022/08/18 12:23:47;;;;;;;;;;;;;;;17.45;48.20;100247.03;5077199;28;981;-59
2022/08/18 12:26:12;;;;;;;;;;;;;;;17.38;48.28;100244.63;5077719;28;949;-57
2022/08/18 12:28:38;;;;;;;;;;;;;;;17.41;48.33;100255.03;5072470;28;842;-57
2022/08/18 12:31:04;;;;;;;;;;;;;;;17.46;48.18;100248.69;5076712;28;937;-60
2022/08/18 12:33:29;;;;;;;;;;;;;;;17.45;48.17;100245.09;5075312;28;1104;-62
2022/08/18 12:35:55;;;;;;;;;;;;;;;17.47;48.41;100244.00;5067565;28;1033;-59
2022/08/18 12:38:22;;;;;;;;;;;;;;;17.49;47.87;100241.75;5076728;28;1072;-59
2022/08/18 12:40:47;;;;;;;;;;;;;;;17.51;48.10;100251.34;5074523;28;878;-59
2022/08/18 12:43:13;;;;;;;;;;;;;;;17.49;48.33;100236.25;5064267;28;1910;-61
2022/08/18 12:45:38;;;;;;;;;;;;;;;17.54;48.32;100230.72;5076912;28;1060;-60
2022/08/18 12:48:04;;;;;;;;;;;;;;;17.53;48.41;100231.81;5045725;28;1098;-59
2022/08/18 12:50:29;;;;;;;;;;;;;;;17.55;48.10;100235.13;5068196;28;950;-59
2022/08/18 12:52:55;;;;;;;;;;;;;;;17.63;47.95;100231.72;5073772;28;954;-60
2022/08/18 12:55:20;;;;;;;;;;;;;;;17.54;48.39;100230.72;5075259;28;1161;-57
2022/08/18 12:57:46;;;;;;;;;;;;;;;17.55;48.35;100229.63;5058436;28;1017;-57
2022/08/18 13:00:12;;;;;;;;;;;;;;;17.53;48.44;100238.16;5076582;28;965;-57
2022/08/18 13:02:37;;;;;;;;;;;;;;;17.56;48.31;100218.31;5064548;28;1994;-56
2022/08/18 13:05:03;;;;;;;;;;;;;;;17.54;48.23;100228.78;5074732;28;870;-59
2022/08/18 13:07:30;;;;;;;;;;;;;;;17.47;48.62;100225.56;5073369;28;966;-56
2022/08/18 13:09:55;;;;;;;;;;;;;;;17.65;48.25;100212.97;5051912;28;1021;-57
2022/08/18 13:12:21;;;;;;;;;;;;;;;17.57;48.10;100216.38;5066832;28;1029;-60
2022/08/18 13:14:46;;;;;;;;;;;;;;;17.59;48.19;100231.47;5063106;28;989;-55
2022/08/18 13:17:12;;;;;;;;;;;;;;;17.54;48.27;100222.47;5066206;28;964;-56
2022/08/18 13:19:38;;;;;;;;;;;;;;;17.58;48.07;100221.59;5057947;28;1127;-62